sensor_id;sensor_type;location;lat;lon;timestamp;pressure;altitude;pressure_sealevel;temperature;humidity
804;BME280;25687;49.976;8.240;2023-08-01T00:00:07;98828.31;;;15.83;100.00
804;BME280;25687;49.976;8.240;2023-08-01T00:02:33;98831.16;;;15.80;100.00
804;BME280;25687;49.976;8.240;2023-08-01T00:04:59;98838.25;;;15.88;100.00
804;BME280;25687;49.976;8.240;2023-08-01T00:07:26;98826.75;;;15.90;100.00
804;BME280;25687;49.976;8.240;2023-08-01T00:09:52;98816.97;;;15.84;100.00
804;BME280;25687;49.976;8.240;2023-08-01T00:12:17;98814.22;;;15.86;100.00
804;BME280;25687;49.976;8.240;2023-08-01T00:14:42;98814.59;;;15.91;100.00
804;BME280;25687;49.976;8.240;2023-08-01T00:17:08;98813.47;;;15.93;100.00
804;BME280;25687;49.976;8.240;2023-08-01T00:19:33;98805.31;;;15.88;100.00
804;BME280;25687;49.976;8.240;2023-08-01T00:21:58;98800.47;;;15.85;100.00
804;BME280;25687;49.976;8.240;2023-08-01T00:24:23;98785.97;;;15.82;100.00
804;BME280;25687;49.976;8.240;2023-08-01T00:26:49;98773.25;;;15.89;100.00
804;BME280;25687;49.976;8.240;2023-08-01T00:29:14;98774.28;;;15.96;100.00
804;BME280;25687;49.976;8.240;2023-08-01T00:31:39;98766.03;;;16.01;100.00
804;BME280;25687;49.976;8.240;2023-08-01T00:34:05;98765.06;;;16.02;100.00
804;BME280;25687;49.976;8.240;2023-08-01T00:36:30;98759.25;;;16.00;100.00
804;BME280;25687;49.976;8.240;2023-08-01T00:38:55;98759.72;;;16.04;100.00
804;BME280;25687;49.976;8.240;2023-08-01T00:41:21;98752.78;;;16.04;100.00
804;BME280;25687;49.976;8.240;2023-08-01T00:43:46;98747.66;;;16.12;100.00
804;BME280;25687;49.976;8.240;2023-08-01T00:46:12;98751.50;;;16.08;100.00
804;BME280;25687;49.976;8.240;2023-08-01T00:48:38;98746.31;;;16.08;100.00
804;BME280;25687;49.976;8.240;2023-08-01T00:51:05;98740.47;;;16.06;100.00
804;BME280;25687;49.976;8.240;2023-08-01T00:53:31;98751.31;;;16.02;100.00
804;BME280;25687;49.976;8.240;2023-08-01T00:55:57;98751.84;;;16.13;100.00
804;BME280;25687;49.976;8.240;2023-08-01T00:58:23;98742.59;;;16.11;100.00
804;BME280;25687;49.976;8.240;2023-08-01T01:00:48;98753.13;;;16.09;100.00
804;BME280;25687;49.976;8.240;2023-08-01T01:03:14;98744.84;;;16.06;100.00
804;BME280;25687;49.976;8.240;2023-08-01T01:05:43;98731.94;;;16.14;100.00
804;BME280;25687;49.976;8.240;2023-08-01T01:08:12;98722.66;;;16.11;100.00
804;BME280;25687;49.976;8.240;2023-08-01T01:10:38;98707.41;;;16.08;100.00
804;BME280;25687;49.976;8.240;2023-08-01T01:13:03;98710.66;;;16.10;100.00
804;BME280;25687;49.976;8.240;2023-08-01T01:15:28;98697.38;;;16.13;100.00
804;BME280;25687;49.976;8.240;2023-08-01T01:17:53;98686.81;;;16.07;100.00
804;BME280;25687;49.976;8.240;2023-08-01T01:20:24;98691.19;;;16.06;100.00
804;BME280;25687;49.976;8.240;2023-08-01T01:22:52;98687.94;;;16.04;100.00
804;BME280;25687;49.976;8.240;2023-08-01T01:25:20;98692.00;;;16.07;100.00
804;BME280;25687;49.976;8.240;2023-08-01T01:27:48;98679.22;;;16.13;100.00
804;BME280;25687;49.976;8.240;2023-08-01T01:30:14;98688.34;;;16.18;100.00
804;BME280;25687;49.976;8.240;2023-08-01T01:32:40;98684.09;;;16.17;100.00
804;BME280;25687;49.976;8.240;2023-08-01T01:35:05;98663.88;;;16.20;100.00
804;BME280;25687;49.976;8.240;2023-08-01T01:40:52;98648.69;;;16.07;100.00
804;BME280;25687;49.976;8.240;2023-08-01T01:43:18;98618.19;;;16.01;100.00
804;BME280;25687;49.976;8.240;2023-08-01T01:45:43;98605.22;;;16.01;100.00
804;BME280;25687;49.976;8.240;2023-08-01T01:48:08;98608.31;;;15.96;100.00
804;BME280;25687;49.976;8.240;2023-08-01T01:50:33;98631.03;;;16.03;100.00
804;BME280;25687;49.976;8.240;2023-08-01T01:52:59;98652.94;;;16.08;100.00
804;BME280;25687;49.976;8.240;2023-08-01T01:55:24;98665.44;;;16.13;100.00
804;BME280;25687;49.976;8.240;2023-08-01T01:57:49;98658.63;;;16.12;100.00
804;BME280;25687;49.976;8.240;2023-08-01T02:00:15;98650.06;;;16.20;100.00
804;BME280;25687;49.976;8.240;2023-08-01T02:02:40;98639.56;;;16.21;100.00
804;BME280;25687;49.976;8.240;2023-08-01T02:05:05;98619.41;;;16.15;100.00
804;BME280;25687;49.976;8.240;2023-08-01T02:07:31;98615.72;;;16.26;100.00
804;BME280;25687;49.976;8.240;2023-08-01T02:09:56;98615.88;;;16.24;100.00
804;BME280;25687;49.976;8.240;2023-08-01T02:12:22;98634.69;;;16.26;100.00
804;BME280;25687;49.976;8.240;2023-08-01T02:14:47;98635.50;;;16.27;100.00
804;BME280;25687;49.976;8.240;2023-08-01T02:17:12;98606.66;;;16.30;100.00
804;BME280;25687;49.976;8.240;2023-08-01T02:19:38;98587.84;;;16.28;100.00
804;BME280;25687;49.976;8.240;2023-08-01T02:22:03;98582.94;;;16.17;100.00
804;BME280;25687;49.976;8.240;2023-08-01T02:24:28;98573.38;;;16.17;100.00
804;BME280;25687;49.976;8.240;2023-08-01T02:26:54;98577.09;;;16.14;100.00
804;BME280;25687;49.976;8.240;2023-08-01T02:29:19;98587.34;;;16.24;100.00
804;BME280;25687;49.976;8.240;2023-08-01T02:31:44;98584.78;;;16.33;100.00
804;BME280;25687;49.976;8.240;2023-08-01T02:34:09;98575.38;;;16.32;100.00
804;BME280;25687;49.976;8.240;2023-08-01T02:36:35;98573.06;;;16.28;100.00
804;BME280;25687;49.976;8.240;2023-08-01T02:39:00;98564.31;;;16.29;100.00
804;BME280;25687;49.976;8.240;2023-08-01T02:41:25;98576.03;;;16.34;100.00
804;BME280;25687;49.976;8.240;2023-08-01T02:43:51;98556.41;;;16.31;100.00
804;BME280;25687;49.976;8.240;2023-08-01T02:46:16;98557.00;;;16.17;100.00
804;BME280;25687;49.976;8.240;2023-08-01T02:48:42;98552.94;;;16.22;100.00
804;BME280;25687;49.976;8.240;2023-08-01T02:51:07;98564.97;;;16.32;100.00
804;BME280;25687;49.976;8.240;2023-08-01T02:53:35;98563.19;;;16.32;100.00
804;BME280;25687;49.976;8.240;2023-08-01T02:56:00;98556.06;;;16.34;100.00
804;BME280;25687;49.976;8.240;2023-08-01T02:58:25;98561.09;;;16.36;100.00
804;BME280;25687;49.976;8.240;2023-08-01T03:00:51;98556.41;;;16.39;100.00
804;BME280;25687;49.976;8.240;2023-08-01T03:03:16;98567.91;;;16.37;100.00
804;BME280;25687;49.976;8.240;2023-08-01T03:05:41;98566.31;;;16.44;100.00
804;BME280;25687;49.976;8.240;2023-08-01T03:08:07;98564.22;;;16.48;100.00
804;BME280;25687;49.976;8.240;2023-08-01T03:10:32;98563.09;;;16.50;100.00
804;BME280;25687;49.976;8.240;2023-08-01T03:12:58;98566.16;;;16.54;100.00
804;BME280;25687;49.976;8.240;2023-08-01T03:15:23;98568.44;;;16.49;100.00
804;BME280;25687;49.976;8.240;2023-08-01T03:17:48;98567.63;;;16.56;100.00
804;BME280;25687;49.976;8.240;2023-08-01T03:20:14;98561.59;;;16.56;100.00
804;BME280;25687;49.976;8.240;2023-08-01T03:22:40;98563.88;;;16.51;100.00
804;BME280;25687;49.976;8.240;2023-08-01T03:25:06;98573.97;;;16.54;100.00
804;BME280;25687;49.976;8.240;2023-08-01T03:27:33;98569.06;;;16.51;100.00
804;BME280;25687;49.976;8.240;2023-08-01T03:29:58;98543.94;;;16.51;100.00
804;BME280;25687;49.976;8.240;2023-08-01T03:32:23;98541.19;;;16.61;100.00
804;BME280;25687;49.976;8.240;2023-08-01T03:34:48;98522.34;;;16.51;100.00
804;BME280;25687;49.976;8.240;2023-08-01T03:37:14;98572.78;;;16.48;100.00
804;BME280;25687;49.976;8.240;2023-08-01T03:39:39;98560.78;;;16.47;100.00
804;BME280;25687;49.976;8.240;2023-08-01T03:42:04;98555.94;;;16.44;100.00
804;BME280;25687;49.976;8.240;2023-08-01T03:44:29;98549.78;;;16.45;100.00
804;BME280;25687;49.976;8.240;2023-08-01T03:46:55;98543.91;;;16.43;100.00
804;BME280;25687;49.976;8.240;2023-08-01T03:49:20;98518.81;;;16.43;100.00
804;BME280;25687;49.976;8.240;2023-08-01T03:51:45;98525.28;;;16.48;100.00
804;BME280;25687;49.976;8.240;2023-08-01T03:54:10;98535.97;;;16.44;100.00
804;BME280;25687;49.976;8.240;2023-08-01T03:56:36;98541.16;;;16.44;100.00
804;BME280;25687;49.976;8.240;2023-08-01T03:59:03;98542.28;;;16.42;100.00
804;BME280;25687;49.976;8.240;2023-08-01T04:01:30;98549.44;;;16.40;100.00
804;BME280;25687;49.976;8.240;2023-08-01T04:03:55;98538.06;;;16.41;100.00
804;BME280;25687;49.976;8.240;2023-08-01T04:06:20;98538.72;;;16.43;100.00
804;BME280;25687;49.976;8.240;2023-08-01T04:08:46;98540.84;;;16.48;100.00
804;BME280;25687;49.976;8.240;2023-08-01T04:11:11;98531.94;;;16.50;100.00
804;BME280;25687;49.976;8.240;2023-08-01T04:13:36;98512.28;;;16.39;100.00
804;BME280;25687;49.976;8.240;2023-08-01T04:16:02;98520.56;;;16.43;100.00
804;BME280;25687;49.976;8.240;2023-08-01T04:18:27;98517.47;;;16.39;100.00
804;BME280;25687;49.976;8.240;2023-08-01T04:20:52;98511.78;;;16.36;100.00
804;BME280;25687;49.976;8.240;2023-08-01T04:23:17;98505.63;;;16.37;100.00
804;BME280;25687;49.976;8.240;2023-08-01T04:25:43;98515.22;;;16.36;100.00
804;BME280;25687;49.976;8.240;2023-08-01T04:28:08;98509.84;;;16.38;100.00
804;BME280;25687;49.976;8.240;2023-08-01T04:30:33;98500.44;;;16.37;100.00
804;BME280;25687;49.976;8.240;2023-08-01T04:32:59;98499.31;;;16.39;100.00
804;BME280;25687;49.976;8.240;2023-08-01T04:35:24;98513.41;;;16.37;100.00
804;BME280;25687;49.976;8.240;2023-08-01T04:37:49;98512.44;;;16.29;100.00
804;BME280;25687;49.976;8.240;2023-08-01T04:40:14;98507.41;;;16.28;100.00
804;BME280;25687;49.976;8.240;2023-08-01T04:42:40;98498.16;;;16.25;100.00
804;BME280;25687;49.976;8.240;2023-08-01T04:45:05;98493.63;;;16.27;100.00
804;BME280;25687;49.976;8.240;2023-08-01T04:47:32;98479.50;;;16.22;100.00
804;BME280;25687;49.976;8.240;2023-08-01T04:49:57;98469.47;;;16.19;100.00
804;BME280;25687;49.976;8.240;2023-08-01T04:52:22;98454.03;;;16.17;100.00
804;BME280;25687;49.976;8.240;2023-08-01T04:54:48;98428.59;;;16.12;100.00
804;BME280;25687;49.976;8.240;2023-08-01T04:57:13;98430.03;;;16.07;100.00
804;BME280;25687;49.976;8.240;2023-08-01T04:59:38;98425.03;;;16.05;100.00
804;BME280;25687;49.976;8.240;2023-08-01T05:02:04;98442.66;;;16.10;100.00
804;BME280;25687;49.976;8.240;2023-08-01T05:04:29;98442.53;;;16.11;100.00
804;BME280;25687;49.976;8.240;2023-08-01T05:06:54;98447.88;;;16.10;100.00
804;BME280;25687;49.976;8.240;2023-08-01T05:09:19;98452.25;;;16.09;100.00
804;BME280;25687;49.976;8.240;2023-08-01T05:11:45;98475.94;;;16.06;100.00
804;BME280;25687;49.976;8.240;2023-08-01T05:14:10;98466.50;;;16.05;100.00
804;BME280;25687;49.976;8.240;2023-08-01T05:16:35;98475.94;;;16.06;100.00
804;BME280;25687;49.976;8.240;2023-08-01T05:19:00;98480.78;;;16.09;100.00
804;BME280;25687;49.976;8.240;2023-08-01T05:21:26;98477.38;;;16.17;100.00
804;BME280;25687;49.976;8.240;2023-08-01T05:23:51;98484.38;;;16.25;100.00
804;BME280;25687;49.976;8.240;2023-08-01T05:26:16;98489.72;;;16.23;100.00
804;BME280;25687;49.976;8.240;2023-08-01T05:28:41;98482.56;;;16.17;100.00
804;BME280;25687;49.976;8.240;2023-08-01T05:31:07;98487.13;;;16.23;100.00
804;BME280;25687;49.976;8.240;2023-08-01T05:33:32;98492.63;;;16.12;100.00
804;BME280;25687;49.976;8.240;2023-08-01T05:35:57;98488.09;;;16.14;100.00
804;BME280;25687;49.976;8.240;2023-08-01T05:38:23;98469.09;;;16.13;100.00
804;BME280;25687;49.976;8.240;2023-08-01T05:40:48;98450.97;;;16.05;100.00
804;BME280;25687;49.976;8.240;2023-08-01T05:43:13;98450.00;;;16.06;100.00
804;BME280;25687;49.976;8.240;2023-08-01T05:45:38;98385.78;;;16.00;100.00
804;BME280;25687;49.976;8.240;2023-08-01T05:48:04;98425.31;;;16.02;100.00
804;BME280;25687;49.976;8.240;2023-08-01T05:50:29;98455.81;;;16.08;100.00
804;BME280;25687;49.976;8.240;2023-08-01T05:52:55;98468.78;;;16.08;100.00
804;BME280;25687;49.976;8.240;2023-08-01T05:55:20;98486.97;;;16.17;100.00
804;BME280;25687;49.976;8.240;2023-08-01T05:57:46;98485.81;;;16.19;100.00
804;BME280;25687;49.976;8.240;2023-08-01T06:00:12;98481.44;;;16.20;100.00
804;BME280;25687;49.976;8.240;2023-08-01T06:02:37;98480.47;;;16.21;100.00
804;BME280;25687;49.976;8.240;2023-08-01T06:05:02;98492.66;;;16.20;100.00
804;BME280;25687;49.976;8.240;2023-08-01T06:07:28;98492.31;;;16.23;100.00
804;BME280;25687;49.976;8.240;2023-08-01T06:09:54;98504.31;;;16.24;100.00
804;BME280;25687;49.976;8.240;2023-08-01T06:12:19;98511.13;;;16.25;100.00
804;BME280;25687;49.976;8.240;2023-08-01T06:14:45;98546.50;;;16.35;100.00
804;BME280;25687;49.976;8.240;2023-08-01T06:17:11;98554.78;;;16.30;100.00
804;BME280;25687;49.976;8.240;2023-08-01T06:19:36;98552.97;;;16.30;100.00
804;BME280;25687;49.976;8.240;2023-08-01T06:22:01;98537.09;;;16.34;100.00
804;BME280;25687;49.976;8.240;2023-08-01T06:24:27;98556.41;;;16.39;100.00
804;BME280;25687;49.976;8.240;2023-08-01T06:26:52;98551.53;;;16.36;100.00
804;BME280;25687;49.976;8.240;2023-08-01T06:29:17;98552.97;;;16.30;100.00
804;BME280;25687;49.976;8.240;2023-08-01T06:31:42;98556.06;;;16.34;100.00
804;BME280;25687;49.976;8.240;2023-08-01T06:34:08;98564.19;;;16.39;100.00
804;BME280;25687;49.976;8.240;2023-08-01T06:36:33;98561.44;;;16.33;100.00
804;BME280;25687;49.976;8.240;2023-08-01T06:38:58;98570.97;;;16.32;100.00
804;BME280;25687;49.976;8.240;2023-08-01T06:41:23;98578.78;;;16.40;100.00
804;BME280;25687;49.976;8.240;2023-08-01T06:43:49;98582.03;;;16.51;100.00
804;BME280;25687;49.976;8.240;2023-08-01T06:46:14;98578.34;;;16.61;100.00
804;BME280;25687;49.976;8.240;2023-08-01T06:48:39;98580.63;;;16.73;100.00
804;BME280;25687;49.976;8.240;2023-08-01T06:51:04;98585.50;;;16.84;100.00
804;BME280;25687;49.976;8.240;2023-08-01T06:53:30;98584.25;;;17.05;100.00
804;BME280;25687;49.976;8.240;2023-08-01T06:55:55;98590.59;;;17.10;100.00
804;BME280;25687;49.976;8.240;2023-08-01T06:58:20;98596.91;;;17.24;100.00
804;BME280;25687;49.976;8.240;2023-08-01T07:00:46;98597.06;;;17.48;100.00
804;BME280;25687;49.976;8.240;2023-08-01T07:03:11;98597.19;;;17.46;100.00
804;BME280;25687;49.976;8.240;2023-08-01T07:05:36;98593.28;;;17.58;100.00
804;BME280;25687;49.976;8.240;2023-08-01T07:08:02;98598.50;;;17.50;100.00
804;BME280;25687;49.976;8.240;2023-08-01T07:10:27;98596.06;;;17.57;100.00
804;BME280;25687;49.976;8.240;2023-08-01T07:12:52;98595.75;;;17.60;100.00
804;BME280;25687;49.976;8.240;2023-08-01T07:15:18;98589.41;;;17.54;100.00
804;BME280;25687;49.976;8.240;2023-08-01T07:17:43;98579.00;;;17.54;100.00
804;BME280;25687;49.976;8.240;2023-08-01T07:20:09;98592.47;;;17.66;100.00
804;BME280;25687;49.976;8.240;2023-08-01T07:22:34;98596.19;;;17.72;100.00
804;BME280;25687;49.976;8.240;2023-08-01T07:24:59;98589.34;;;17.71;100.00
804;BME280;25687;49.976;8.240;2023-08-01T07:27:24;98588.53;;;17.79;100.00
804;BME280;25687;49.976;8.240;2023-08-01T07:29:50;98586.72;;;17.87;100.00
804;BME280;25687;49.976;8.240;2023-08-01T07:32:15;98599.91;;;17.78;100.00
804;BME280;25687;49.976;8.240;2023-08-01T07:34:40;98592.53;;;17.89;100.00
804;BME280;25687;49.976;8.240;2023-08-01T07:37:06;98597.19;;;18.19;100.00
804;BME280;25687;49.976;8.240;2023-08-01T07:39:31;98592.25;;;18.55;100.00
804;BME280;25687;49.976;8.240;2023-08-01T07:41:56;98593.03;;;19.64;100.00
804;BME280;25687;49.976;8.240;2023-08-01T07:44:22;98601.25;;;21.22;100.00
804;BME280;25687;49.976;8.240;2023-08-01T07:46:47;98591.09;;;22.80;100.00
804;BME280;25687;49.976;8.240;2023-08-01T07:49:13;98590.28;;;24.18;100.00
804;BME280;25687;49.976;8.240;2023-08-01T07:51:38;98595.72;;;24.30;100.00
804;BME280;25687;49.976;8.240;2023-08-01T07:54:03;98600.94;;;25.52;100.00
804;BME280;25687;49.976;8.240;2023-08-01T07:56:28;98597.59;;;26.31;100.00
804;BME280;25687;49.976;8.240;2023-08-01T07:58:54;98608.44;;;26.41;93.82
804;BME280;25687;49.976;8.240;2023-08-01T08:01:19;98611.38;;;26.63;96.34
804;BME280;25687;49.976;8.240;2023-08-01T08:03:44;98618.59;;;26.98;97.27
804;BME280;25687;49.976;8.240;2023-08-01T08:06:10;98617.09;;;27.26;92.74
804;BME280;25687;49.976;8.240;2023-08-01T08:08:35;98622.28;;;27.68;88.08
804;BME280;25687;49.976;8.240;2023-08-01T08:11:02;98624.06;;;29.07;80.23
804;BME280;25687;49.976;8.240;2023-08-01T08:13:27;98616.22;;;29.29;80.15
804;BME280;25687;49.976;8.240;2023-08-01T08:15:55;98624.34;;;29.84;73.34
804;BME280;25687;49.976;8.240;2023-08-01T08:18:21;98620.78;;;29.34;80.38
804;BME280;25687;49.976;8.240;2023-08-01T08:20:47;98623.09;;;29.48;77.55
804;BME280;25687;49.976;8.240;2023-08-01T08:23:12;98633.47;;;29.15;71.99
804;BME280;25687;49.976;8.240;2023-08-01T08:25:42;98624.84;;;29.42;69.64
804;BME280;25687;49.976;8.240;2023-08-01T08:28:07;98644.00;;;30.55;67.10
804;BME280;25687;49.976;8.240;2023-08-01T08:30:33;98641.78;;;29.80;58.81
804;BME280;25687;49.976;8.240;2023-08-01T08:32:58;98643.09;;;29.21;58.35
804;BME280;25687;49.976;8.240;2023-08-01T08:35:25;98649.56;;;30.09;59.92
804;BME280;25687;49.976;8.240;2023-08-01T08:37:50;98655.59;;;28.34;68.24
804;BME280;25687;49.976;8.240;2023-08-01T08:40:16;98655.25;;;27.78;74.76
804;BME280;25687;49.976;8.240;2023-08-01T08:42:43;98663.78;;;27.14;78.39
804;BME280;25687;49.976;8.240;2023-08-01T08:45:08;98645.69;;;27.17;79.71
804;BME280;25687;49.976;8.240;2023-08-01T08:47:36;98651.78;;;27.89;76.23
804;BME280;25687;49.976;8.240;2023-08-01T08:50:03;98645.69;;;27.77;75.17
804;BME280;25687;49.976;8.240;2023-08-01T08:52:29;98647.91;;;28.32;64.74
804;BME280;25687;49.976;8.240;2023-08-01T08:54:55;98647.41;;;29.10;65.25
804;BME280;25687;49.976;8.240;2023-08-01T08:57:21;98647.81;;;29.75;61.25
804;BME280;25687;49.976;8.240;2023-08-01T08:59:47;98652.22;;;29.48;57.90
804;BME280;25687;49.976;8.240;2023-08-01T09:02:14;98655.75;;;29.19;61.29
804;BME280;25687;49.976;8.240;2023-08-01T09:04:40;98659.25;;;27.92;63.90
804;BME280;25687;49.976;8.240;2023-08-01T09:07:09;98658.34;;;27.39;71.67
804;BME280;25687;49.976;8.240;2023-08-01T09:09:34;98647.91;;;27.56;66.37
804;BME280;25687;49.976;8.240;2023-08-01T09:12:00;98650.25;;;26.37;76.11
804;BME280;25687;49.976;8.240;2023-08-01T09:14:25;98642.34;;;27.22;74.34
804;BME280;25687;49.976;8.240;2023-08-01T09:16:50;98642.97;;;28.82;60.76
804;BME280;25687;49.976;8.240;2023-08-01T09:19:21;98648.72;;;30.25;52.70
804;BME280;25687;49.976;8.240;2023-08-01T09:21:47;98652.72;;;30.28;44.69
804;BME280;25687;49.976;8.240;2023-08-01T09:24:17;98656.88;;;29.06;45.65
804;BME280;25687;49.976;8.240;2023-08-01T09:26:44;98658.13;;;28.58;49.23
804;BME280;25687;49.976;8.240;2023-08-01T09:29:09;98657.66;;;29.58;46.55
804;BME280;25687;49.976;8.240;2023-08-01T09:31:40;98657.78;;;30.30;42.57
804;BME280;25687;49.976;8.240;2023-08-01T09:34:17;98670.97;;;28.95;45.50
804;BME280;25687;49.976;8.240;2023-08-01T09:36:42;98664.09;;;27.60;56.06
804;BME280;25687;49.976;8.240;2023-08-01T09:39:08;98657.41;;;27.81;53.83
804;BME280;25687;49.976;8.240;2023-08-01T09:41:33;98666.44;;;27.14;53.64
804;BME280;25687;49.976;8.240;2023-08-01T09:43:58;98666.84;;;27.41;52.34
804;BME280;25687;49.976;8.240;2023-08-01T09:46:25;98681.00;;;27.16;56.36
804;BME280;25687;49.976;8.240;2023-08-01T09:48:50;98666.66;;;28.31;51.60
804;BME280;25687;49.976;8.240;2023-08-01T09:51:17;98674.53;;;28.43;50.38
804;BME280;25687;49.976;8.240;2023-08-01T09:54:00;98680.66;;;28.31;48.05
804;BME280;25687;49.976;8.240;2023-08-01T09:56:26;98685.88;;;29.86;42.27
804;BME280;25687;49.976;8.240;2023-08-01T09:58:54;98685.03;;;29.63;42.18
804;BME280;25687;49.976;8.240;2023-08-01T10:01:21;98699.78;;;31.15;39.44
804;BME280;25687;49.976;8.240;2023-08-01T10:03:48;98697.16;;;31.63;39.85
804;BME280;25687;49.976;8.240;2023-08-01T10:06:21;98688.97;;;30.22;40.23
804;BME280;25687;49.976;8.240;2023-08-01T10:08:48;98696.38;;;30.42;41.13
804;BME280;25687;49.976;8.240;2023-08-01T10:11:18;98696.25;;;31.47;38.71
804;BME280;25687;49.976;8.240;2023-08-01T10:13:44;98701.41;;;32.86;36.45
804;BME280;25687;49.976;8.240;2023-08-01T10:16:11;98701.00;;;30.80;38.23
804;BME280;25687;49.976;8.240;2023-08-01T10:18:38;98706.97;;;30.20;39.13
804;BME280;25687;49.976;8.240;2023-08-01T10:21:21;98705.88;;;28.92;41.64
804;BME280;25687;49.976;8.240;2023-08-01T10:23:48;98692.56;;;27.46;52.12
804;BME280;25687;49.976;8.240;2023-08-01T10:26:13;98688.16;;;28.51;46.91
804;BME280;25687;49.976;8.240;2023-08-01T10:28:41;98690.66;;;28.70;45.70
804;BME280;25687;49.976;8.240;2023-08-01T10:31:14;98691.41;;;28.82;46.21
804;BME280;25687;49.976;8.240;2023-08-01T10:33:41;98702.97;;;30.89;39.92
804;BME280;25687;49.976;8.240;2023-08-01T10:36:21;98704.16;;;31.04;37.83
804;BME280;25687;49.976;8.240;2023-08-01T10:38:51;98706.78;;;32.17;36.55
804;BME280;25687;49.976;8.240;2023-08-01T10:41:21;98710.28;;;30.77;37.71
804;BME280;25687;49.976;8.240;2023-08-01T10:43:46;98696.59;;;27.84;43.10
804;BME280;25687;49.976;8.240;2023-08-01T10:46:12;98709.41;;;26.23;56.60
804;BME280;25687;49.976;8.240;2023-08-01T10:48:50;98712.00;;;24.71;69.17
804;BME280;25687;49.976;8.240;2023-08-01T10:51:16;98700.66;;;24.71;74.76
804;BME280;25687;49.976;8.240;2023-08-01T10:53:41;98705.06;;;25.16;72.72
804;BME280;25687;49.976;8.240;2023-08-01T10:56:07;98699.66;;;24.58;69.55
804;BME280;25687;49.976;8.240;2023-08-01T10:58:33;98704.97;;;24.52;76.35
804;BME280;25687;49.976;8.240;2023-08-01T11:00:58;98700.50;;;24.52;75.37
804;BME280;25687;49.976;8.240;2023-08-01T11:03:37;98694.03;;;23.96;76.92
804;BME280;25687;49.976;8.240;2023-08-01T11:06:02;98699.81;;;24.25;73.88
804;BME280;25687;49.976;8.240;2023-08-01T11:08:38;98693.50;;;24.39;77.35
804;BME280;25687;49.976;8.240;2023-08-01T11:11:14;98702.72;;;24.69;80.04
804;BME280;25687;49.976;8.240;2023-08-01T11:13:39;98707.81;;;24.43;74.23
804;BME280;25687;49.976;8.240;2023-08-01T11:16:05;98706.13;;;24.76;75.09
804;BME280;25687;49.976;8.240;2023-08-01T11:18:41;98703.84;;;25.18;73.57
804;BME280;25687;49.976;8.240;2023-08-01T11:21:07;98706.41;;;25.25;72.35
804;BME280;25687;49.976;8.240;2023-08-01T11:23:33;98689.16;;;25.29;69.08
804;BME280;25687;49.976;8.240;2023-08-01T11:25:58;98696.19;;;25.10;69.65
804;BME280;25687;49.976;8.240;2023-08-01T11:28:24;98703.59;;;25.52;65.06
804;BME280;25687;49.976;8.240;2023-08-01T11:30:49;98705.38;;;25.01;62.02
804;BME280;25687;49.976;8.240;2023-08-01T11:33:23;98710.88;;;24.40;70.92
804;BME280;25687;49.976;8.240;2023-08-01T11:35:56;98707.59;;;24.52;74.77
804;BME280;25687;49.976;8.240;2023-08-01T11:38:29;98709.00;;;24.54;74.09
804;BME280;25687;49.976;8.240;2023-08-01T11:40:57;98715.75;;;24.37;72.78
804;BME280;25687;49.976;8.240;2023-08-01T11:43:22;98718.41;;;24.23;75.63
804;BME280;25687;49.976;8.240;2023-08-01T11:48:16;98714.38;;;24.21;77.37
804;BME280;25687;49.976;8.240;2023-08-01T11:50:43;98715.66;;;24.57;71.08
804;BME280;25687;49.976;8.240;2023-08-01T11:53:19;98732.03;;;24.59;74.74
804;BME280;25687;49.976;8.240;2023-08-01T11:55:45;98727.09;;;24.83;63.41
804;BME280;25687;49.976;8.240;2023-08-01T11:58:10;98724.28;;;25.16;61.13
804;BME280;25687;49.976;8.240;2023-08-01T12:00:35;98728.72;;;25.48;62.13
804;BME280;25687;49.976;8.240;2023-08-01T12:03:04;98733.97;;;25.54;67.50
804;BME280;25687;49.976;8.240;2023-08-01T12:05:30;98731.84;;;25.63;60.25
804;BME280;25687;49.976;8.240;2023-08-01T12:07:56;98737.00;;;25.19;54.66
804;BME280;25687;49.976;8.240;2023-08-01T12:10:21;98744.81;;;25.33;59.89
804;BME280;25687;49.976;8.240;2023-08-01T12:12:49;98749.22;;;25.45;60.05
804;BME280;25687;49.976;8.240;2023-08-01T12:15:14;98735.59;;;25.17;59.26
804;BME280;25687;49.976;8.240;2023-08-01T12:17:40;98732.91;;;24.91;61.92
804;BME280;25687;49.976;8.240;2023-08-01T12:20:06;98735.09;;;25.33;62.59
804;BME280;25687;49.976;8.240;2023-08-01T12:22:32;98731.41;;;25.41;58.25
804;BME280;25687;49.976;8.240;2023-08-01T12:24:57;98732.31;;;25.28;62.13
804;BME280;25687;49.976;8.240;2023-08-01T12:27:22;98727.50;;;25.18;59.45
804;BME280;25687;49.976;8.240;2023-08-01T12:29:48;98738.56;;;24.95;56.19
804;BME280;25687;49.976;8.240;2023-08-01T12:32:13;98738.72;;;25.07;60.90
804;BME280;25687;49.976;8.240;2023-08-01T12:34:39;98723.81;;;24.94;59.54
804;BME280;25687;49.976;8.240;2023-08-01T12:37:04;98721.59;;;25.23;58.11
804;BME280;25687;49.976;8.240;2023-08-01T12:39:30;98725.53;;;25.45;61.41
804;BME280;25687;49.976;8.240;2023-08-01T12:41:55;98712.75;;;25.49;61.50
804;BME280;25687;49.976;8.240;2023-08-01T12:44:20;98714.19;;;25.70;62.29
804;BME280;25687;49.976;8.240;2023-08-01T12:46:46;98733.88;;;25.61;60.78
804;BME280;25687;49.976;8.240;2023-08-01T12:49:12;98731.53;;;25.53;59.28
804;BME280;25687;49.976;8.240;2023-08-01T12:51:37;98736.03;;;25.13;65.87
804;BME280;25687;49.976;8.240;2023-08-01T12:54:03;98728.09;;;24.88;66.93
804;BME280;25687;49.976;8.240;2023-08-01T12:56:28;98726.94;;;24.77;70.79
804;BME280;25687;49.976;8.240;2023-08-01T12:58:53;98733.78;;;24.26;71.94
804;BME280;25687;49.976;8.240;2023-08-01T13:01:18;98722.50;;;24.06;76.77
804;BME280;25687;49.976;8.240;2023-08-01T13:03:44;98713.91;;;24.37;75.97
804;BME280;25687;49.976;8.240;2023-08-01T13:06:12;98723.53;;;24.57;69.73
804;BME280;25687;49.976;8.240;2023-08-01T13:08:40;98726.88;;;24.39;71.41
804;BME280;25687;49.976;8.240;2023-08-01T13:11:12;98724.84;;;24.34;76.58
804;BME280;25687;49.976;8.240;2023-08-01T13:13:38;98726.91;;;24.25;81.47